sensor_id;sensor_type;location;lat;lon;timestamp;P1;durP1;ratioP1;P2;durP2;ratioP2
19897;SDS011;10111;50.814;4.572;2023-04-24T00:00:20;17.23;;;11.57;;
19897;SDS011;10111;50.814;4.572;2023-04-24T00:02:46;17.40;;;11.13;;
19897;SDS011;10111;50.814;4.572;2023-04-24T00:05:13;15.03;;;11.27;;
19897;SDS011;10111;50.814;4.572;2023-04-24T00:07:40;17.00;;;11.07;;
19897;SDS011;10111;50.814;4.572;2023-04-24T00:10:07;19.10;;;10.87;;
19897;SDS011;10111;50.814;4.572;2023-04-24T00:12:33;25.37;;;11.40;;
19897;SDS011;10111;50.814;4.572;2023-04-24T00:15:00;17.40;;;10.87;;
19897;SDS011;10111;50.814;4.572;2023-04-24T00:17:25;16.53;;;11.93;;
19897;SDS011;10111;50.814;4.572;2023-04-24T00:19:51;14.80;;;10.83;;
19897;SDS011;10111;50.814;4.572;2023-04-24T00:22:23;22.13;;;11.87;;
19897;SDS011;10111;50.814;4.572;2023-04-24T00:24:49;22.73;;;11.73;;
19897;SDS011;10111;50.814;4.572;2023-04-24T00:27:15;19.93;;;10.93;;
19897;SDS011;10111;50.814;4.572;2023-04-24T00:29:40;16.13;;;12.00;;
19897;SDS011;10111;50.814;4.572;2023-04-24T00:32:06;18.57;;;11.53;;
19897;SDS011;10111;50.814;4.572;2023-04-24T00:34:31;18.93;;;9.67;;
19897;SDS011;10111;50.814;4.572;2023-04-24T00:36:57;18.77;;;11.80;;
19897;SDS011;10111;50.814;4.572;2023-04-24T00:39:23;17.40;;;10.93;;
19897;SDS011;10111;50.814;4.572;2023-04-24T00:41:49;17.67;;;11.27;;
19897;SDS011;10111;50.814;4.572;2023-04-24T00:44:16;17.83;;;11.87;;
19897;SDS011;10111;50.814;4.572;2023-04-24T00:46:42;15.47;;;11.73;;
19897;SDS011;10111;50.814;4.572;2023-04-24T00:49:08;20.00;;;11.87;;
19897;SDS011;10111;50.814;4.572;2023-04-24T00:51:33;19.97;;;11.57;;
19897;SDS011;10111;50.814;4.572;2023-04-24T00:53:59;15.00;;;9.97;;
19897;SDS011;10111;50.814;4.572;2023-04-24T00:56:25;19.07;;;12.47;;
19897;SDS011;10111;50.814;4.572;2023-04-24T00:58:51;21.23;;;11.80;;
19897;SDS011;10111;50.814;4.572;2023-04-24T01:01:21;17.27;;;11.37;;
19897;SDS011;10111;50.814;4.572;2023-04-24T01:03:47;18.97;;;11.40;;
19897;SDS011;10111;50.814;4.572;2023-04-24T01:06:15;16.90;;;11.27;;
19897;SDS011;10111;50.814;4.572;2023-04-24T01:08:42;15.47;;;11.23;;
19897;SDS011;10111;50.814;4.572;2023-04-24T01:11:09;19.80;;;13.10;;
19897;SDS011;10111;50.814;4.572;2023-04-24T01:13:35;15.57;;;10.53;;
19897;SDS011;10111;50.814;4.572;2023-04-24T01:16:01;19.17;;;11.80;;
19897;SDS011;10111;50.814;4.572;2023-04-24T01:18:27;22.07;;;11.43;;
19897;SDS011;10111;50.814;4.572;2023-04-24T01:20:53;21.27;;;10.50;;
19897;SDS011;10111;50.814;4.572;2023-04-24T01:23:22;11.93;;;9.73;;
19897;SDS011;10111;50.814;4.572;2023-04-24T01:25:49;15.17;;;10.03;;
19897;SDS011;10111;50.814;4.572;2023-04-24T01:28:15;14.70;;;11.00;;
19897;SDS011;10111;50.814;4.572;2023-04-24T01:30:41;14.07;;;9.97;;
19897;SDS011;10111;50.814;4.572;2023-04-24T01:33:07;16.23;;;10.47;;
19897;SDS011;10111;50.814;4.572;2023-04-24T01:35:33;20.80;;;10.93;;
19897;SDS011;10111;50.814;4.572;2023-04-24T01:38:01;13.57;;;10.43;;
19897;SDS011;10111;50.814;4.572;2023-04-24T01:40:27;14.67;;;9.90;;
19897;SDS011;10111;50.814;4.572;2023-04-24T01:42:52;17.93;;;10.17;;
19897;SDS011;10111;50.814;4.572;2023-04-24T01:45:18;16.33;;;10.20;;
19897;SDS011;10111;50.814;4.572;2023-04-24T01:47:44;20.30;;;9.80;;
19897;SDS011;10111;50.814;4.572;2023-04-24T01:50:11;15.07;;;10.37;;
19897;SDS011;10111;50.814;4.572;2023-04-24T01:52:37;19.70;;;10.87;;
19897;SDS011;10111;50.814;4.572;2023-04-24T01:55:03;15.67;;;9.73;;
19897;SDS011;10111;50.814;4.572;2023-04-24T01:57:30;14.93;;;10.23;;
19897;SDS011;10111;50.814;4.572;2023-04-24T01:59:56;17.20;;;10.60;;
19897;SDS011;10111;50.814;4.572;2023-04-24T02:02:22;14.70;;;10.90;;
19897;SDS011;10111;50.814;4.572;2023-04-24T02:04:54;14.03;;;10.90;;
19897;SDS011;10111;50.814;4.572;2023-04-24T02:07:21;22.03;;;11.90;;
19897;SDS011;10111;50.814;4.572;2023-04-24T02:09:47;15.97;;;11.20;;
19897;SDS011;10111;50.814;4.572;2023-04-24T02:12:13;16.67;;;10.47;;
19897;SDS011;10111;50.814;4.572;2023-04-24T02:14:39;18.03;;;11.17;;
19897;SDS011;10111;50.814;4.572;2023-04-24T02:17:04;18.63;;;12.73;;
19897;SDS011;10111;50.814;4.572;2023-04-24T02:19:30;16.40;;;11.60;;
19897;SDS011;10111;50.814;4.572;2023-04-24T02:21:56;19.10;;;12.00;;
19897;SDS011;10111;50.814;4.572;2023-04-24T02:24:22;20.10;;;12.53;;
19897;SDS011;10111;50.814;4.572;2023-04-24T02:26:47;17.50;;;12.30;;
19897;SDS011;10111;50.814;4.572;2023-04-24T02:29:13;23.23;;;13.47;;
19897;SDS011;10111;50.814;4.572;2023-04-24T02:31:39;19.97;;;12.60;;
19897;SDS011;10111;50.814;4.572;2023-04-24T02:34:05;23.20;;;13.70;;
19897;SDS011;10111;50.814;4.572;2023-04-24T02:36:31;20.80;;;12.60;;
19897;SDS011;10111;50.814;4.572;2023-04-24T02:38:56;18.40;;;12.10;;
19897;SDS011;10111;50.814;4.572;2023-04-24T02:41:22;24.07;;;12.80;;
19897;SDS011;10111;50.814;4.572;2023-04-24T02:43:48;19.17;;;12.03;;
19897;SDS011;10111;50.814;4.572;2023-04-24T02:46:13;16.20;;;11.83;;
19897;SDS011;10111;50.814;4.572;2023-04-24T02:48:39;19.23;;;11.47;;
19897;SDS011;10111;50.814;4.572;2023-04-24T02:51:05;18.80;;;12.53;;
19897;SDS011;10111;50.814;4.572;2023-04-24T02:53:31;18.60;;;11.87;;
19897;SDS011;10111;50.814;4.572;2023-04-24T02:55:57;16.30;;;10.80;;
19897;SDS011;10111;50.814;4.572;2023-04-24T02:58:23;18.50;;;11.43;;
19897;SDS011;10111;50.814;4.572;2023-04-24T03:00:52;18.07;;;10.50;;
19897;SDS011;10111;50.814;4.572;2023-04-24T03:03:19;14.50;;;10.37;;
19897;SDS011;10111;50.814;4.572;2023-04-24T03:05:45;17.37;;;10.93;;
19897;SDS011;10111;50.814;4.572;2023-04-24T03:08:11;15.20;;;10.33;;
19897;SDS011;10111;50.814;4.572;2023-04-24T03:10:36;13.67;;;10.03;;
19897;SDS011;10111;50.814;4.572;2023-04-24T03:13:02;18.13;;;10.60;;
19897;SDS011;10111;50.814;4.572;2023-04-24T03:15:27;14.73;;;10.30;;
19897;SDS011;10111;50.814;4.572;2023-04-24T03:17:54;15.60;;;9.93;;
19897;SDS011;10111;50.814;4.572;2023-04-24T03:20:20;14.20;;;9.97;;
19897;SDS011;10111;50.814;4.572;2023-04-24T03:22:46;15.37;;;9.40;;
19897;SDS011;10111;50.814;4.572;2023-04-24T03:25:12;16.57;;;9.40;;
19897;SDS011;10111;50.814;4.572;2023-04-24T03:27:37;14.77;;;8.03;;
19897;SDS011;10111;50.814;4.572;2023-04-24T03:30:04;12.20;;;8.93;;
19897;SDS011;10111;50.814;4.572;2023-04-24T03:32:33;12.67;;;8.30;;
19897;SDS011;10111;50.814;4.572;2023-04-24T03:34:59;15.13;;;8.43;;
19897;SDS011;10111;50.814;4.572;2023-04-24T03:37:25;12.30;;;9.03;;
19897;SDS011;10111;50.814;4.572;2023-04-24T03:39:51;11.97;;;8.17;;
19897;SDS011;10111;50.814;4.572;2023-04-24T03:42:17;13.17;;;8.87;;
19897;SDS011;10111;50.814;4.572;2023-04-24T03:44:43;12.17;;;8.33;;
19897;SDS011;10111;50.814;4.572;2023-04-24T03:47:08;11.30;;;8.27;;
19897;SDS011;10111;50.814;4.572;2023-04-24T03:49:34;16.57;;;8.17;;
19897;SDS011;10111;50.814;4.572;2023-04-24T03:52:00;12.20;;;9.67;;
19897;SDS011;10111;50.814;4.572;2023-04-24T03:54:26;19.23;;;9.57;;
19897;SDS011;10111;50.814;4.572;2023-04-24T03:56:52;10.00;;;7.53;;
19897;SDS011;10111;50.814;4.572;2023-04-24T03:59:18;11.67;;;8.13;;
19897;SDS011;10111;50.814;4.572;2023-04-24T04:01:44;12.67;;;6.97;;
19897;SDS011;10111;50.814;4.572;2023-04-24T04:04:10;10.60;;;6.60;;
19897;SDS011;10111;50.814;4.572;2023-04-24T04:06:37;10.10;;;7.10;;
19897;SDS011;10111;50.814;4.572;2023-04-24T04:09:03;10.40;;;6.83;;
19897;SDS011;10111;50.814;4.572;2023-04-24T04:11:29;8.80;;;6.77;;
19897;SDS011;10111;50.814;4.572;2023-04-24T04:13:55;8.10;;;6.67;;
19897;SDS011;10111;50.814;4.572;2023-04-24T04:16:21;8.33;;;6.73;;
19897;SDS011;10111;50.814;4.572;2023-04-24T04:18:48;12.13;;;8.03;;
19897;SDS011;10111;50.814;4.572;2023-04-24T04:21:13;9.73;;;6.23;;
19897;SDS011;10111;50.814;4.572;2023-04-24T04:23:39;9.70;;;6.47;;
19897;SDS011;10111;50.814;4.572;2023-04-24T04:26:05;8.10;;;6.10;;
19897;SDS011;10111;50.814;4.572;2023-04-24T04:28:31;7.53;;;6.10;;
19897;SDS011;10111;50.814;4.572;2023-04-24T04:30:57;13.00;;;6.50;;
19897;SDS011;10111;50.814;4.572;2023-04-24T04:33:23;9.97;;;6.33;;
19897;SDS011;10111;50.814;4.572;2023-04-24T04:35:50;8.13;;;5.67;;
19897;SDS011;10111;50.814;4.572;2023-04-24T04:38:21;11.47;;;6.07;;
19897;SDS011;10111;50.814;4.572;2023-04-24T04:40:47;9.53;;;6.03;;
19897;SDS011;10111;50.814;4.572;2023-04-24T04:43:13;8.77;;;5.83;;
19897;SDS011;10111;50.814;4.572;2023-04-24T04:45:41;8.57;;;5.60;;
19897;SDS011;10111;50.814;4.572;2023-04-24T04:48:08;9.80;;;5.97;;
19897;SDS011;10111;50.814;4.572;2023-04-24T04:50:34;5.97;;;5.00;;
19897;SDS011;10111;50.814;4.572;2023-04-24T04:53:00;9.67;;;5.70;;
19897;SDS011;10111;50.814;4.572;2023-04-24T04:55:26;7.53;;;5.53;;
19897;SDS011;10111;50.814;4.572;2023-04-24T04:57:52;6.80;;;5.00;;
19897;SDS011;10111;50.814;4.572;2023-04-24T05:00:18;8.10;;;5.37;;
19897;SDS011;10111;50.814;4.572;2023-04-24T05:02:44;7.97;;;5.67;;
19897;SDS011;10111;50.814;4.572;2023-04-24T05:05:09;8.90;;;6.20;;
19897;SDS011;10111;50.814;4.572;2023-04-24T05:07:35;10.17;;;6.97;;
19897;SDS011;10111;50.814;4.572;2023-04-24T05:10:01;7.90;;;5.47;;
19897;SDS011;10111;50.814;4.572;2023-04-24T05:12:27;10.93;;;7.30;;
19897;SDS011;10111;50.814;4.572;2023-04-24T05:14:53;12.03;;;7.73;;
19897;SDS011;10111;50.814;4.572;2023-04-24T05:17:19;11.30;;;7.87;;
19897;SDS011;10111;50.814;4.572;2023-04-24T05:19:44;16.00;;;8.60;;
19897;SDS011;10111;50.814;4.572;2023-04-24T05:22:11;15.63;;;8.40;;
19897;SDS011;10111;50.814;4.572;2023-04-24T05:24:37;13.30;;;9.27;;
19897;SDS011;10111;50.814;4.572;2023-04-24T05:27:03;16.53;;;9.83;;
19897;SDS011;10111;50.814;4.572;2023-04-24T05:29:32;15.10;;;8.73;;
19897;SDS011;10111;50.814;4.572;2023-04-24T05:31:58;15.60;;;10.27;;
19897;SDS011;10111;50.814;4.572;2023-04-24T05:34:25;16.10;;;9.73;;
19897;SDS011;10111;50.814;4.572;2023-04-24T05:36:51;13.97;;;8.43;;
19897;SDS011;10111;50.814;4.572;2023-04-24T05:39:17;14.70;;;9.17;;
19897;SDS011;10111;50.814;4.572;2023-04-24T05:41:42;15.37;;;9.80;;
19897;SDS011;10111;50.814;4.572;2023-04-24T05:44:08;12.70;;;9.07;;
19897;SDS011;10111;50.814;4.572;2023-04-24T05:46:34;14.43;;;9.60;;
19897;SDS011;10111;50.814;4.572;2023-04-24T05:49:00;14.13;;;10.17;;
19897;SDS011;10111;50.814;4.572;2023-04-24T05:51:26;18.07;;;10.23;;
19897;SDS011;10111;50.814;4.572;2023-04-24T05:53:52;14.17;;;9.80;;
19897;SDS011;10111;50.814;4.572;2023-04-24T05:56:18;17.50;;;10.93;;
19897;SDS011;10111;50.814;4.572;2023-04-24T05:58:44;15.97;;;10.33;;
19897;SDS011;10111;50.814;4.572;2023-04-24T06:01:11;24.03;;;11.57;;
19897;SDS011;10111;50.814;4.572;2023-04-24T06:03:37;16.23;;;9.93;;
19897;SDS011;10111;50.814;4.572;2023-04-24T06:06:05;15.60;;;10.27;;
19897;SDS011;10111;50.814;4.572;2023-04-24T06:08:31;17.63;;;11.73;;
19897;SDS011;10111;50.814;4.572;2023-04-24T06:10:57;16.27;;;10.13;;
19897;SDS011;10111;50.814;4.572;2023-04-24T06:13:23;21.20;;;10.67;;
19897;SDS011;10111;50.814;4.572;2023-04-24T06:15:49;15.73;;;10.73;;
19897;SDS011;10111;50.814;4.572;2023-04-24T06:18:15;15.73;;;10.23;;
19897;SDS011;10111;50.814;4.572;2023-04-24T06:20:41;15.60;;;9.77;;
19897;SDS011;10111;50.814;4.572;2023-04-24T06:23:07;14.83;;;8.87;;
19897;SDS011;10111;50.814;4.572;2023-04-24T06:25:32;12.63;;;8.43;;
19897;SDS011;10111;50.814;4.572;2023-04-24T06:27:58;13.57;;;8.97;;
19897;SDS011;10111;50.814;4.572;2023-04-24T06:30:24;17.23;;;10.77;;
19897;SDS011;10111;50.814;4.572;2023-04-24T06:32:50;19.40;;;10.47;;
19897;SDS011;10111;50.814;4.572;2023-04-24T06:35:16;14.30;;;8.70;;
19897;SDS011;10111;50.814;4.572;2023-04-24T06:37:42;18.57;;;9.77;;
19897;SDS011;10111;50.814;4.572;2023-04-24T06:40:08;20.73;;;11.80;;
19897;SDS011;10111;50.814;4.572;2023-04-24T06:42:35;19.20;;;11.23;;
19897;SDS011;10111;50.814;4.572;2023-04-24T06:45:01;18.07;;;10.80;;
19897;SDS011;10111;50.814;4.572;2023-04-24T06:47:27;19.83;;;12.00;;
19897;SDS011;10111;50.814;4.572;2023-04-24T06:49:52;17.80;;;11.63;;
19897;SDS011;10111;50.814;4.572;2023-04-24T06:52:18;17.23;;;11.47;;
19897;SDS011;10111;50.814;4.572;2023-04-24T06:54:44;18.17;;;11.83;;
19897;SDS011;10111;50.814;4.572;2023-04-24T06:57:10;19.27;;;12.10;;
19897;SDS011;10111;50.814;4.572;2023-04-24T06:59:36;19.60;;;11.90;;
19897;SDS011;10111;50.814;4.572;2023-04-24T07:02:02;22.93;;;12.53;;
19897;SDS011;10111;50.814;4.572;2023-04-24T07:04:28;22.93;;;14.10;;
19897;SDS011;10111;50.814;4.572;2023-04-24T07:06:55;19.27;;;12.33;;
19897;SDS011;10111;50.814;4.572;2023-04-24T07:09:23;22.63;;;14.10;;
19897;SDS011;10111;50.814;4.572;2023-04-24T07:11:50;19.17;;;10.10;;
19897;SDS011;10111;50.814;4.572;2023-04-24T07:14:19;24.27;;;13.97;;
19897;SDS011;10111;50.814;4.572;2023-04-24T07:16:45;20.73;;;13.70;;
19897;SDS011;10111;50.814;4.572;2023-04-24T07:19:11;24.77;;;15.63;;
19897;SDS011;10111;50.814;4.572;2023-04-24T07:21:38;19.70;;;13.40;;
19897;SDS011;10111;50.814;4.572;2023-04-24T07:24:03;20.87;;;13.47;;
19897;SDS011;10111;50.814;4.572;2023-04-24T07:26:30;23.53;;;12.50;;
19897;SDS011;10111;50.814;4.572;2023-04-24T07:28:56;22.23;;;12.67;;
19897;SDS011;10111;50.814;4.572;2023-04-24T07:31:21;19.33;;;12.30;;
19897;SDS011;10111;50.814;4.572;2023-04-24T07:33:47;16.73;;;10.87;;
19897;SDS011;10111;50.814;4.572;2023-04-24T07:36:13;19.93;;;11.10;;
19897;SDS011;10111;50.814;4.572;2023-04-24T07:38:46;17.37;;;10.30;;
19897;SDS011;10111;50.814;4.572;2023-04-24T07:41:13;23.67;;;11.90;;
19897;SDS011;10111;50.814;4.572;2023-04-24T07:43:39;19.33;;;11.90;;
19897;SDS011;10111;50.814;4.572;2023-04-24T07:46:05;17.73;;;11.73;;
19897;SDS011;10111;50.814;4.572;2023-04-24T07:48:31;20.50;;;12.20;;
19897;SDS011;10111;50.814;4.572;2023-04-24T07:50:57;19.37;;;11.07;;
19897;SDS011;10111;50.814;4.572;2023-04-24T07:53:23;17.40;;;9.20;;
19897;SDS011;10111;50.814;4.572;2023-04-24T07:55:48;13.93;;;8.73;;
19897;SDS011;10111;50.814;4.572;2023-04-24T07:58:14;12.30;;;9.13;;
19897;SDS011;10111;50.814;4.572;2023-04-24T08:00:40;11.90;;;7.63;;
19897;SDS011;10111;50.814;4.572;2023-04-24T08:03:05;13.83;;;8.30;;
19897;SDS011;10111;50.814;4.572;2023-04-24T08:05:31;12.60;;;8.63;;
19897;SDS011;10111;50.814;4.572;2023-04-24T08:07:57;10.87;;;7.37;;
19897;SDS011;10111;50.814;4.572;2023-04-24T08:10:24;16.07;;;8.70;;
19897;SDS011;10111;50.814;4.572;2023-04-24T08:12:50;14.27;;;9.73;;
19897;SDS011;10111;50.814;4.572;2023-04-24T08:15:16;11.50;;;9.23;;
19897;SDS011;10111;50.814;4.572;2023-04-24T08:17:42;14.53;;;9.30;;
19897;SDS011;10111;50.814;4.572;2023-04-24T08:20:08;17.77;;;11.03;;
19897;SDS011;10111;50.814;4.572;2023-04-24T08:22:38;15.20;;;10.07;;
19897;SDS011;10111;50.814;4.572;2023-04-24T08:25:08;14.97;;;8.97;;
19897;SDS011;10111;50.814;4.572;2023-04-24T08:27:35;16.33;;;9.97;;
19897;SDS011;10111;50.814;4.572;2023-04-24T08:30:02;14.50;;;10.23;;
19897;SDS011;10111;50.814;4.572;2023-04-24T08:32:28;9.07;;;7.20;;
19897;SDS011;10111;50.814;4.572;2023-04-24T08:34:54;15.53;;;8.90;;
19897;SDS011;10111;50.814;4.572;2023-04-24T08:37:21;14.10;;;9.67;;
19897;SDS011;10111;50.814;4.572;2023-04-24T08:39:48;15.03;;;8.77;;
19897;SDS011;10111;50.814;4.572;2023-04-24T08:42:14;12.97;;;7.80;;
19897;SDS011;10111;50.814;4.572;2023-04-24T08:44:42;12.03;;;7.27;;
19897;SDS011;10111;50.814;4.572;2023-04-24T08:47:08;12.27;;;8.23;;
19897;SDS011;10111;50.814;4.572;2023-04-24T08:49:34;13.13;;;8.97;;
19897;SDS011;10111;50.814;4.572;2023-04-24T08:52:01;20.93;;;8.77;;
19897;SDS011;10111;50.814;4.572;2023-04-24T08:54:27;11.67;;;7.53;;
19897;SDS011;10111;50.814;4.572;2023-04-24T08:56:54;18.03;;;8.50;;
19897;SDS011;10111;50.814;4.572;2023-04-24T08:59:26;17.60;;;7.57;;
19897;SDS011;10111;50.814;4.572;2023-04-24T09:01:52;16.23;;;7.87;;
19897;SDS011;10111;50.814;4.572;2023-04-24T09:04:19;10.87;;;6.77;;
19897;SDS011;10111;50.814;4.572;2023-04-24T09:06:47;14.40;;;7.20;;
19897;SDS011;10111;50.814;4.572;2023-04-24T09:09:14;12.27;;;5.87;;
19897;SDS011;10111;50.814;4.572;2023-04-24T09:11:41;9.30;;;5.83;;
19897;SDS011;10111;50.814;4.572;2023-04-24T09:14:08;6.73;;;5.20;;
19897;SDS011;10111;50.814;4.572;2023-04-24T09:16:35;6.07;;;5.27;;
19897;SDS011;10111;50.814;4.572;2023-04-24T09:19:01;8.13;;;5.20;;
19897;SDS011;10111;50.814;4.572;2023-04-24T09:21:31;12.67;;;5.50;;
19897;SDS011;10111;50.814;4.572;2023-04-24T09:23:58;10.53;;;6.30;;
19897;SDS011;10111;50.814;4.572;2023-04-24T09:26:26;8.93;;;5.87;;
19897;SDS011;10111;50.814;4.572;2023-04-24T09:28:57;11.47;;;5.03;;
19897;SDS011;10111;50.814;4.572;2023-04-24T09:31:23;9.17;;;5.87;;
19897;SDS011;10111;50.814;4.572;2023-04-24T09:36:31;7.57;;;4.80;;
19897;SDS011;10111;50.814;4.572;2023-04-24T09:38:59;7.97;;;4.63;;
19897;SDS011;10111;50.814;4.572;2023-04-24T09:41:26;5.53;;;4.17;;
19897;SDS011;10111;50.814;4.572;2023-04-24T09:43:54;6.43;;;4.17;;
19897;SDS011;10111;50.814;4.572;2023-04-24T09:46:20;8.37;;;4.07;;
19897;SDS011;10111;50.814;4.572;2023-04-24T09:48:47;6.20;;;4.17;;
19897;SDS011;10111;50.814;4.572;2023-04-24T09:51:13;5.57;;;4.13;;
19897;SDS011;10111;50.814;4.572;2023-04-24T09:53:44;9.13;;;4.27;;
19897;SDS011;10111;50.814;4.572;2023-04-24T09:56:11;6.07;;;4.23;;
19897;SDS011;10111;50.814;4.572;2023-04-24T09:58:40;5.63;;;3.73;;
19897;SDS011;10111;50.814;4.572;2023-04-24T10:01:05;8.97;;;4.40;;
19897;SDS011;10111;50.814;4.572;2023-04-24T10:03:34;6.70;;;3.80;;
19897;SDS011;10111;50.814;4.572;2023-04-24T10:06:01;7.60;;;3.90;;
19897;SDS011;10111;50.814;4.572;2023-04-24T10:08:33;5.77;;;3.43;;
19897;SDS011;10111;50.814;4.572;2023-04-24T10:11:00;8.77;;;4.10;;
19897;SDS011;10111;50.814;4.572;2023-04-24T10:13:26;6.27;;;3.70;;
19897;SDS011;10111;50.814;4.572;2023-04-24T10:15:53;6.07;;;4.20;;
19897;SDS011;10111;50.814;4.572;2023-04-24T10:18:21;5.47;;;3.50;;
19897;SDS011;10111;50.814;4.572;2023-04-24T10:20:47;7.23;;;3.63;;
19897;SDS011;10111;50.814;4.572;2023-04-24T10:23:13;8.40;;;3.77;;
19897;SDS011;10111;50.814;4.572;2023-04-24T10:25:39;6.07;;;3.47;;
19897;SDS011;10111;50.814;4.572;2023-04-24T10:28:05;10.97;;;4.03;;
19897;SDS011;10111;50.814;4.572;2023-04-24T10:30:33;5.10;;;3.83;;
19897;SDS011;10111;50.814;4.572;2023-04-24T10:33:03;6.70;;;4.30;;
19897;SDS011;10111;50.814;4.572;2023-04-24T10:35:37;6.97;;;4.00;;
19897;SDS011;10111;50.814;4.572;2023-04-24T10:38:08;6.93;;;3.90;;
19897;SDS011;10111;50.814;4.572;2023-04-24T10:40:37;8.90;;;3.90;;
19897;SDS011;10111;50.814;4.572;2023-04-24T10:43:03;8.07;;;4.23;;
19897;SDS011;10111;50.814;4.572;2023-04-24T10:45:33;9.87;;;4.13;;
19897;SDS011;10111;50.814;4.572;2023-04-24T10:47:59;5.57;;;3.97;;
19897;SDS011;10111;50.814;4.572;2023-04-24T10:50:28;6.07;;;4.80;;
19897;SDS011;10111;50.814;4.572;2023-04-24T10:53:18;4.87;;;4.33;;
19897;SDS011;10111;50.814;4.572;2023-04-24T10:55:49;9.70;;;4.53;;
19897;SDS011;10111;50.814;4.572;2023-04-24T10:58:16;11.00;;;5.17;;
19897;SDS011;10111;50.814;4.572;2023-04-24T11:00:59;9.00;;;4.60;;
19897;SDS011;10111;50.814;4.572;2023-04-24T11:03:32;8.80;;;5.60;;
19897;SDS011;10111;50.814;4.572;2023-04-24T11:11:08;9.47;;;4.57;;
19897;SDS011;10111;50.814;4.572;2023-04-24T11:16:29;10.53;;;4.53;;
19897;SDS011;10111;50.814;4.572;2023-04-24T11:27:15;8.63;;;4.77;;
19897;SDS011;10111;50.814;4.572;2023-04-24T11:32:38;7.70;;;5.20;;
19897;SDS011;10111;50.814;4.572;2023-04-24T11:37:45;10.33;;;5.13;;
19897;SDS011;10111;50.814;4.572;2023-04-24T11:40:14;10.27;;;5.00;;
19897;SDS011;10111;50.814;4.572;2023-04-24T11:42:41;9.57;;;6.37;;
19897;SDS011;10111;50.814;4.572;2023-04-24T11:45:09;8.53;;;5.07;;
19897;SDS011;10111;50.814;4.572;2023-04-24T11:47:49;7.63;;;6.00;;
19897;SDS011;10111;50.814;4.572;2023-04-24T11:50:16;9.00;;;5.10;;
19897;SDS011;10111;50.814;4.572;2023-04-24T11:52:44;5.97;;;4.67;;
19897;SDS011;10111;50.814;4.572;2023-04-24T11:57:41;7.83;;;5.00;;
19897;SDS011;10111;50.814;4.572;2023-04-24T12:00:14;14.20;;;5.43;;
19897;SDS011;10111;50.814;4.572;2023-04-24T12:02:50;8.53;;;4.80;;
19897;SDS011;10111;50.814;4.572;2023-04-24T12:05:23;5.73;;;4.70;;
19897;SDS011;10111;50.814;4.572;2023-04-24T12:07:50;8.23;;;5.77;;
19897;SDS011;10111;50.814;4.572;2023-04-24T12:10:23;9.17;;;6.40;;
19897;SDS011;10111;50.814;4.572;2023-04-24T12:12:50;7.40;;;5.37;;
19897;SDS011;10111;50.814;4.572;2023-04-24T12:15:17;10.03;;;6.20;;
19897;SDS011;10111;50.814;4.572;2023-04-24T12:17:44;8.47;;;5.50;;
19897;SDS011;10111;50.814;4.572;2023-04-24T12:20:10;8.97;;;5.50;;
19897;SDS011;10111;50.814;4.572;2023-04-24T12:22:43;9.53;;;6.40;;
19897;SDS011;10111;50.814;4.572;2023-04-24T12:25:11;5.90;;;5.10;;
19897;SDS011;10111;50.814;4.572;2023-04-24T12:27:37;9.70;;;5.10;;
19897;SDS011;10111;50.814;4.572;2023-04-24T12:30:03;8.00;;;5.97;;
19897;SDS011;10111;50.814;4.572;2023-04-24T12:32:30;10.83;;;6.20;;
19897;SDS011;10111;50.814;4.572;2023-04-24T12:34:56;9.13;;;5.43;;
19897;SDS011;10111;50.814;4.572;2023-04-24T12:37:23;11.10;;;7.67;;
19897;SDS011;10111;50.814;4.572;2023-04-24T12:40:00;9.30;;;5.70;;
19897;SDS011;10111;50.814;4.572;2023-04-24T12:42:26;8.30;;;6.10;;
19897;SDS011;10111;50.814;4.572;2023-04-24T12:44:56;6.07;;;5.40;;
19897;SDS011;10111;50.814;4.572;2023-04-24T12:47:30;13.37;;;5.83;;
19897;SDS011;10111;50.814;4.572;2023-04-24T12:49:56;13.27;;;6.57;;
19897;SDS011;10111;50.814;4.572;2023-04-24T12:52:22;8.70;;;5.57;;
19897;SDS011;10111;50.814;4.572;2023-04-24T12:54:49;9.10;;;5.17;;
19897;SDS011;10111;50.814;4.572;2023-04-24T12:57:16;7.87;;;4.73;;
19897;SDS011;10111;50.814;4.572;2023-04-24T12:59:43;6.80;;;4.47;;
19897;SDS011;10111;50.814;4.572;2023-04-24T13:02:09;6.67;;;5.73;;
19897;SDS011;10111;50.814;4.572;2023-04-24T13:04:35;12.20;;;5.30;;
19897;SDS011;10111;50.814;4.572;2023-04-24T13:07:01;5.40;;;4.53;;
19897;SDS011;10111;50.814;4.572;2023-04-24T13:09:27;7.90;;;5.13;;
19897;SDS011;10111;50.814;4.572;2023-04-24T13:11:52;5.33;;;4.60;;
19897;SDS011;10111;50.814;4.572;2023-04-24T13:14:19;9.57;;;5.33;;
19897;SDS011;10111;50.814;4.572;2023-04-24T13:16:45;7.13;;;4.50;;
19897;SDS011;10111;50.814;4.572;2023-04-24T13:19:10;4.57;;;4.13;;
19897;SDS011;10111;50.814;4.572;2023-04-24T13:21:36;9.67;;;4.57;;
19897;SDS011;10111;50.814;4.572;2023-04-24T13:24:02;7.10;;;4.23;;
19897;SDS011;10111;50.814;4.572;2023-04-24T13:26:29;6.57;;;4.60;;
19897;SDS011;10111;50.814;4.572;2023-04-24T13:28:55;7.73;;;6.07;;
19897;SDS011;10111;50.814;4.572;2023-04-24T13:31:21;8.57;;;4.63;;
19897;SDS011;10111;50.814;4.572;2023-04-24T13:33:47;6.60;;;4.37;;
19897;SDS011;10111;50.814;4.572;2023-04-24T13:36:13;5.00;;;4.50;;
19897;SDS011;10111;50.814;4.572;2023-04-24T13:38:38;8.17;;;4.63;;
19897;SDS011;10111;50.814;4.572;2023-04-24T13:41:04;9.40;;;5.47;;
19897;SDS011;10111;50.814;4.572;2023-04-24T13:43:30;6.47;;;4.80;;
19897;SDS011;10111;50.814;4.572;2023-04-24T13:45:56;32.07;;;18.27;;
19897;SDS011;10111;50.814;4.572;2023-04-24T13:48:21;4.10;;;3.70;;
19897;SDS011;10111;50.814;4.572;2023-04-24T13:50:47;5.77;;;3.60;;
19897;SDS011;10111;50.814;4.572;2023-04-24T13:53:14;7.30;;;3.77;;
19897;SDS011;10111;50.814;4.572;2023-04-24T13:55:40;5.13;;;3.10;;
19897;SDS011;10111;50.814;4.572;2023-04-24T13:58:06;7.30;;;3.57;;
19897;SDS011;10111;50.814;4.572;2023-04-24T14:00:32;4.53;;;3.43;;
19897;SDS011;10111;50.814;4.572;2023-04-24T14:02:58;10.27;;;4.17;;
19897;SDS011;10111;50.814;4.572;2023-04-24T14:05:24;4.93;;;3.37;;
19897;SDS011;10111;50.814;4.572;2023-04-24T14:07:50;7.20;;;4.33;;
19897;SDS011;10111;50.814;4.572;2023-04-24T14:10:16;5.63;;;3.83;;
19897;SDS011;10111;50.814;4.572;2023-04-24T14:12:41;4.03;;;3.13;;
19897;SDS011;10111;50.814;4.572;2023-04-24T14:15:07;2.97;;;2.67;;
19897;SDS011;10111;50.814;4.572;2023-04-24T14:17:34;4.17;;;3.40;;
19897;SDS011;10111;50.814;4.572;2023-04-24T14:19:59;8.20;;;3.80;;
19897;SDS011;10111;50.814;4.572;2023-04-24T14:22:25;4.27;;;3.33;;
19897;SDS011;10111;50.814;4.572;2023-04-24T14:24:51;5.23;;;4.50;;
19897;SDS011;10111;50.814;4.572;2023-04-24T14:27:17;4.80;;;3.73;;
19897;SDS011;10111;50.814;4.572;2023-04-24T14:29:42;5.83;;;3.70;;
19897;SDS011;10111;50.814;4.572;2023-04-24T14:32:10;4.10;;;3.10;;
19897;SDS011;10111;50.814;4.572;2023-04-24T14:34:36;6.17;;;2.97;;
19897;SDS011;10111;50.814;4.572;2023-04-24T14:37:01;3.40;;;2.60;;
19897;SDS011;10111;50.814;4.572;2023-04-24T14:39:28;6.97;;;2.83;;
19897;SDS011;10111;50.814;4.572;2023-04-24T14:41:53;7.20;;;2.90;;
19897;SDS011;10111;50.814;4.572;2023-04-24T14:44:20;6.63;;;3.00;;
19897;SDS011;10111;50.814;4.572;2023-04-24T14:46:45;3.53;;;2.60;;
19897;SDS011;10111;50.814;4.572;2023-04-24T14:49:13;5.00;;;3.10;;
19897;SDS011;10111;50.814;4.572;2023-04-24T14:51:39;3.87;;;2.13;;
19897;SDS011;10111;50.814;4.572;2023-04-24T14:54:05;5.73;;;3.07;;
19897;SDS011;10111;50.814;4.572;2023-04-24T14:56:31;4.50;;;2.70;;
19897;SDS011;10111;50.814;4.572;2023-04-24T14:58:57;4.67;;;2.43;;